sensor_id;sensor_type;location;lat;lon;timestamp;P1;durP1;ratioP1;P2;durP2;ratioP2
26502;SDS011;14177;51.520;6.764;2024-03-25T00:00:23;37.38;;;16.60;;
26502;SDS011;14177;51.520;6.764;2024-03-25T00:02:50;44.08;;;17.20;;
26502;SDS011;14177;51.520;6.764;2024-03-25T00:05:16;37.42;;;16.88;;
26502;SDS011;14177;51.520;6.764;2024-03-25T00:07:48;36.63;;;15.95;;
26502;SDS011;14177;51.520;6.764;2024-03-25T00:10:14;34.30;;;15.05;;
26502;SDS011;14177;51.520;6.764;2024-03-25T00:12:40;41.17;;;16.40;;
26502;SDS011;14177;51.520;6.764;2024-03-25T00:15:06;34.13;;;14.77;;
26502;SDS011;14177;51.520;6.764;2024-03-25T00:17:33;33.70;;;15.10;;
26502;SDS011;14177;51.520;6.764;2024-03-25T00:19:59;36.08;;;14.77;;
26502;SDS011;14177;51.520;6.764;2024-03-25T00:22:25;38.72;;;17.67;;
26502;SDS011;14177;51.520;6.764;2024-03-25T00:24:52;36.53;;;17.58;;
26502;SDS011;14177;51.520;6.764;2024-03-25T00:27:18;36.78;;;18.70;;
26502;SDS011;14177;51.520;6.764;2024-03-25T00:29:44;39.08;;;19.00;;
26502;SDS011;14177;51.520;6.764;2024-03-25T00:32:10;41.05;;;20.05;;
26502;SDS011;14177;51.520;6.764;2024-03-25T00:34:36;48.97;;;21.85;;
26502;SDS011;14177;51.520;6.764;2024-03-25T00:37:03;55.30;;;23.92;;
26502;SDS011;14177;51.520;6.764;2024-03-25T00:39:29;47.00;;;22.90;;
26502;SDS011;14177;51.520;6.764;2024-03-25T00:42:00;42.45;;;18.90;;
26502;SDS011;14177;51.520;6.764;2024-03-25T00:44:26;40.97;;;18.52;;
26502;SDS011;14177;51.520;6.764;2024-03-25T00:46:52;42.35;;;16.90;;
26502;SDS011;14177;51.520;6.764;2024-03-25T00:49:18;51.53;;;17.75;;
26502;SDS011;14177;51.520;6.764;2024-03-25T00:51:44;37.70;;;15.32;;
26502;SDS011;14177;51.520;6.764;2024-03-25T00:54:10;32.70;;;14.98;;
26502;SDS011;14177;51.520;6.764;2024-03-25T00:56:37;29.25;;;12.70;;
26502;SDS011;14177;51.520;6.764;2024-03-25T00:59:03;24.20;;;10.82;;
26502;SDS011;14177;51.520;6.764;2024-03-25T01:01:29;24.83;;;10.45;;
26502;SDS011;14177;51.520;6.764;2024-03-25T01:03:57;25.65;;;8.95;;
26502;SDS011;14177;51.520;6.764;2024-03-25T01:06:23;24.33;;;9.23;;
26502;SDS011;14177;51.520;6.764;2024-03-25T01:08:50;23.52;;;8.55;;
26502;SDS011;14177;51.520;6.764;2024-03-25T01:11:16;24.20;;;7.00;;
26502;SDS011;14177;51.520;6.764;2024-03-25T01:13:42;19.23;;;6.88;;
26502;SDS011;14177;51.520;6.764;2024-03-25T01:16:09;22.83;;;6.10;;
26502;SDS011;14177;51.520;6.764;2024-03-25T01:18:35;19.55;;;6.32;;
26502;SDS011;14177;51.520;6.764;2024-03-25T01:21:01;18.05;;;5.18;;
26502;SDS011;14177;51.520;6.764;2024-03-25T01:23:28;20.38;;;5.50;;
26502;SDS011;14177;51.520;6.764;2024-03-25T01:25:54;25.25;;;5.22;;
26502;SDS011;14177;51.520;6.764;2024-03-25T01:28:20;26.80;;;5.22;;
26502;SDS011;14177;51.520;6.764;2024-03-25T01:30:48;10.60;;;4.22;;
26502;SDS011;14177;51.520;6.764;2024-03-25T01:33:14;19.20;;;4.32;;
26502;SDS011;14177;51.520;6.764;2024-03-25T01:35:40;15.88;;;4.43;;
26502;SDS011;14177;51.520;6.764;2024-03-25T01:38:07;12.05;;;4.28;;
26502;SDS011;14177;51.520;6.764;2024-03-25T01:40:33;20.20;;;4.88;;
26502;SDS011;14177;51.520;6.764;2024-03-25T01:43:00;18.90;;;4.70;;
26502;SDS011;14177;51.520;6.764;2024-03-25T01:45:29;17.40;;;4.82;;
26502;SDS011;14177;51.520;6.764;2024-03-25T01:47:59;16.83;;;3.90;;
26502;SDS011;14177;51.520;6.764;2024-03-25T01:50:33;14.02;;;3.85;;
26502;SDS011;14177;51.520;6.764;2024-03-25T01:53:11;13.88;;;3.58;;
26502;SDS011;14177;51.520;6.764;2024-03-25T01:55:39;17.67;;;4.35;;
26502;SDS011;14177;51.520;6.764;2024-03-25T01:58:08;15.98;;;4.43;;
26502;SDS011;14177;51.520;6.764;2024-03-25T02:00:34;13.43;;;3.22;;
26502;SDS011;14177;51.520;6.764;2024-03-25T02:03:01;17.77;;;3.45;;
26502;SDS011;14177;51.520;6.764;2024-03-25T02:05:27;12.63;;;3.17;;
26502;SDS011;14177;51.520;6.764;2024-03-25T02:07:54;6.97;;;2.53;;
26502;SDS011;14177;51.520;6.764;2024-03-25T02:10:21;20.95;;;4.05;;
26502;SDS011;14177;51.520;6.764;2024-03-25T02:12:47;12.60;;;3.33;;
26502;SDS011;14177;51.520;6.764;2024-03-25T02:15:15;12.55;;;2.95;;
26502;SDS011;14177;51.520;6.764;2024-03-25T02:17:42;14.48;;;3.00;;
26502;SDS011;14177;51.520;6.764;2024-03-25T02:20:09;15.00;;;3.53;;
26502;SDS011;14177;51.520;6.764;2024-03-25T02:22:37;9.32;;;3.25;;
26502;SDS011;14177;51.520;6.764;2024-03-25T02:25:07;16.92;;;3.35;;
26502;SDS011;14177;51.520;6.764;2024-03-25T02:27:35;13.00;;;2.97;;
26502;SDS011;14177;51.520;6.764;2024-03-25T02:30:04;10.02;;;3.25;;
26502;SDS011;14177;51.520;6.764;2024-03-25T02:32:33;16.48;;;3.40;;
26502;SDS011;14177;51.520;6.764;2024-03-25T02:35:00;14.40;;;3.03;;
26502;SDS011;14177;51.520;6.764;2024-03-25T02:37:30;13.45;;;2.97;;
26502;SDS011;14177;51.520;6.764;2024-03-25T02:39:58;13.43;;;3.13;;
26502;SDS011;14177;51.520;6.764;2024-03-25T02:42:26;13.82;;;3.53;;
26502;SDS011;14177;51.520;6.764;2024-03-25T02:44:54;13.00;;;3.95;;
26502;SDS011;14177;51.520;6.764;2024-03-25T02:47:21;10.70;;;3.50;;
26502;SDS011;14177;51.520;6.764;2024-03-25T02:49:48;13.63;;;3.85;;
26502;SDS011;14177;51.520;6.764;2024-03-25T02:52:14;13.07;;;2.65;;
26502;SDS011;14177;51.520;6.764;2024-03-25T02:54:40;12.57;;;2.95;;
26502;SDS011;14177;51.520;6.764;2024-03-25T02:57:06;12.35;;;3.03;;
26502;SDS011;14177;51.520;6.764;2024-03-25T02:59:32;10.35;;;3.28;;
26502;SDS011;14177;51.520;6.764;2024-03-25T03:01:58;11.02;;;2.80;;
26502;SDS011;14177;51.520;6.764;2024-03-25T03:04:24;12.35;;;2.92;;
26502;SDS011;14177;51.520;6.764;2024-03-25T03:06:50;10.70;;;3.55;;
26502;SDS011;14177;51.520;6.764;2024-03-25T03:09:16;16.42;;;3.55;;
26502;SDS011;14177;51.520;6.764;2024-03-25T03:11:42;15.45;;;3.17;;
26502;SDS011;14177;51.520;6.764;2024-03-25T03:14:09;16.48;;;3.33;;
26502;SDS011;14177;51.520;6.764;2024-03-25T03:16:35;12.32;;;3.10;;
26502;SDS011;14177;51.520;6.764;2024-03-25T03:19:01;13.05;;;3.53;;
26502;SDS011;14177;51.520;6.764;2024-03-25T03:21:27;16.50;;;3.97;;
26502;SDS011;14177;51.520;6.764;2024-03-25T03:23:55;13.35;;;3.17;;
26502;SDS011;14177;51.520;6.764;2024-03-25T03:26:21;15.52;;;3.65;;
26502;SDS011;14177;51.520;6.764;2024-03-25T03:28:55;17.90;;;3.47;;
26502;SDS011;14177;51.520;6.764;2024-03-25T03:31:24;12.30;;;3.65;;
26502;SDS011;14177;51.520;6.764;2024-03-25T03:33:51;18.05;;;3.95;;
26502;SDS011;14177;51.520;6.764;2024-03-25T03:36:18;13.93;;;3.35;;
26502;SDS011;14177;51.520;6.764;2024-03-25T03:38:46;16.13;;;3.33;;
26502;SDS011;14177;51.520;6.764;2024-03-25T03:41:12;18.30;;;3.60;;
26502;SDS011;14177;51.520;6.764;2024-03-25T03:43:38;14.75;;;3.50;;
26502;SDS011;14177;51.520;6.764;2024-03-25T03:46:04;20.13;;;3.80;;
26502;SDS011;14177;51.520;6.764;2024-03-25T03:48:31;17.85;;;3.20;;
26502;SDS011;14177;51.520;6.764;2024-03-25T03:50:57;18.55;;;3.70;;
26502;SDS011;14177;51.520;6.764;2024-03-25T03:53:23;21.38;;;3.58;;
26502;SDS011;14177;51.520;6.764;2024-03-25T03:55:54;19.75;;;3.50;;
26502;SDS011;14177;51.520;6.764;2024-03-25T03:58:21;22.77;;;3.97;;
26502;SDS011;14177;51.520;6.764;2024-03-25T04:00:48;18.63;;;4.82;;
26502;SDS011;14177;51.520;6.764;2024-03-25T04:03:16;14.15;;;3.58;;
26502;SDS011;14177;51.520;6.764;2024-03-25T04:05:42;14.38;;;3.22;;
26502;SDS011;14177;51.520;6.764;2024-03-25T04:08:09;18.45;;;3.55;;
26502;SDS011;14177;51.520;6.764;2024-03-25T04:10:35;19.70;;;3.65;;
26502;SDS011;14177;51.520;6.764;2024-03-25T04:13:05;17.35;;;3.53;;
26502;SDS011;14177;51.520;6.764;2024-03-25T04:15:35;23.05;;;4.45;;
26502;SDS011;14177;51.520;6.764;2024-03-25T04:18:06;19.17;;;4.63;;
26502;SDS011;14177;51.520;6.764;2024-03-25T04:20:36;20.17;;;5.20;;
26502;SDS011;14177;51.520;6.764;2024-03-25T04:23:04;24.70;;;6.07;;
26502;SDS011;14177;51.520;6.764;2024-03-25T04:25:32;17.73;;;4.97;;
26502;SDS011;14177;51.520;6.764;2024-03-25T04:28:05;19.20;;;5.95;;
26502;SDS011;14177;51.520;6.764;2024-03-25T04:30:32;13.48;;;4.68;;
26502;SDS011;14177;51.520;6.764;2024-03-25T04:32:59;18.17;;;4.20;;
26502;SDS011;14177;51.520;6.764;2024-03-25T04:35:25;23.52;;;3.88;;
26502;SDS011;14177;51.520;6.764;2024-03-25T04:37:52;12.55;;;3.85;;
26502;SDS011;14177;51.520;6.764;2024-03-25T04:40:18;11.90;;;3.53;;
26502;SDS011;14177;51.520;6.764;2024-03-25T04:42:45;11.57;;;3.28;;
26502;SDS011;14177;51.520;6.764;2024-03-25T04:45:11;14.23;;;4.15;;
26502;SDS011;14177;51.520;6.764;2024-03-25T04:47:37;13.30;;;4.13;;
26502;SDS011;14177;51.520;6.764;2024-03-25T04:50:04;17.27;;;5.07;;
26502;SDS011;14177;51.520;6.764;2024-03-25T04:52:31;20.48;;;5.75;;
26502;SDS011;14177;51.520;6.764;2024-03-25T04:54:57;17.70;;;4.38;;
26502;SDS011;14177;51.520;6.764;2024-03-25T04:57:24;12.85;;;3.95;;
26502;SDS011;14177;51.520;6.764;2024-03-25T04:59:50;13.13;;;4.13;;
26502;SDS011;14177;51.520;6.764;2024-03-25T05:02:16;13.95;;;3.85;;
26502;SDS011;14177;51.520;6.764;2024-03-25T05:04:42;19.92;;;4.53;;
26502;SDS011;14177;51.520;6.764;2024-03-25T05:07:08;11.52;;;3.42;;
26502;SDS011;14177;51.520;6.764;2024-03-25T05:09:35;18.85;;;4.45;;
26502;SDS011;14177;51.520;6.764;2024-03-25T05:12:01;19.27;;;4.45;;
26502;SDS011;14177;51.520;6.764;2024-03-25T05:14:28;12.70;;;4.57;;
26502;SDS011;14177;51.520;6.764;2024-03-25T05:16:54;18.17;;;4.47;;
26502;SDS011;14177;51.520;6.764;2024-03-25T05:19:21;11.38;;;4.20;;
26502;SDS011;14177;51.520;6.764;2024-03-25T05:21:47;19.08;;;3.80;;
26502;SDS011;14177;51.520;6.764;2024-03-25T05:24:13;15.55;;;4.70;;
26502;SDS011;14177;51.520;6.764;2024-03-25T05:26:39;11.93;;;3.90;;
26502;SDS011;14177;51.520;6.764;2024-03-25T05:29:05;25.05;;;4.80;;
26502;SDS011;14177;51.520;6.764;2024-03-25T05:31:32;25.77;;;5.10;;
26502;SDS011;14177;51.520;6.764;2024-03-25T05:33:58;21.95;;;5.25;;
26502;SDS011;14177;51.520;6.764;2024-03-25T05:36:28;13.43;;;4.07;;
26502;SDS011;14177;51.520;6.764;2024-03-25T05:38:54;15.02;;;4.65;;
26502;SDS011;14177;51.520;6.764;2024-03-25T05:41:20;19.95;;;4.85;;
26502;SDS011;14177;51.520;6.764;2024-03-25T05:43:46;19.52;;;4.60;;
26502;SDS011;14177;51.520;6.764;2024-03-25T05:46:14;15.50;;;4.20;;
26502;SDS011;14177;51.520;6.764;2024-03-25T05:48:40;20.75;;;5.05;;
26502;SDS011;14177;51.520;6.764;2024-03-25T05:51:07;15.60;;;4.05;;
26502;SDS011;14177;51.520;6.764;2024-03-25T05:53:33;20.98;;;4.68;;
26502;SDS011;14177;51.520;6.764;2024-03-25T05:55:59;9.88;;;4.22;;
26502;SDS011;14177;51.520;6.764;2024-03-25T05:58:25;14.05;;;4.93;;
26502;SDS011;14177;51.520;6.764;2024-03-25T06:00:52;23.92;;;5.22;;
26502;SDS011;14177;51.520;6.764;2024-03-25T06:03:19;10.43;;;4.63;;
26502;SDS011;14177;51.520;6.764;2024-03-25T06:05:46;16.50;;;4.90;;
26502;SDS011;14177;51.520;6.764;2024-03-25T06:08:13;15.00;;;5.13;;
26502;SDS011;14177;51.520;6.764;2024-03-25T06:10:54;21.95;;;5.45;;
26502;SDS011;14177;51.520;6.764;2024-03-25T06:13:27;15.40;;;4.97;;
26502;SDS011;14177;51.520;6.764;2024-03-25T06:15:53;16.67;;;4.82;;
26502;SDS011;14177;51.520;6.764;2024-03-25T06:18:19;20.40;;;4.82;;
26502;SDS011;14177;51.520;6.764;2024-03-25T06:20:45;15.93;;;4.93;;
26502;SDS011;14177;51.520;6.764;2024-03-25T06:23:21;16.60;;;5.00;;
26502;SDS011;14177;51.520;6.764;2024-03-25T06:25:51;11.60;;;4.40;;
26502;SDS011;14177;51.520;6.764;2024-03-25T06:28:19;15.43;;;4.57;;
26502;SDS011;14177;51.520;6.764;2024-03-25T06:30:47;17.50;;;5.90;;
26502;SDS011;14177;51.520;6.764;2024-03-25T06:33:33;16.98;;;5.60;;
26502;SDS011;14177;51.520;6.764;2024-03-25T06:36:18;12.23;;;5.18;;
26502;SDS011;14177;51.520;6.764;2024-03-25T06:38:45;17.35;;;5.18;;
26502;SDS011;14177;51.520;6.764;2024-03-25T06:41:11;11.15;;;5.18;;
26502;SDS011;14177;51.520;6.764;2024-03-25T06:43:37;23.17;;;4.82;;
26502;SDS011;14177;51.520;6.764;2024-03-25T06:46:04;16.50;;;5.75;;
26502;SDS011;14177;51.520;6.764;2024-03-25T06:48:32;13.82;;;5.30;;
26502;SDS011;14177;51.520;6.764;2024-03-25T06:51:00;16.48;;;5.82;;
26502;SDS011;14177;51.520;6.764;2024-03-25T06:53:29;20.25;;;4.85;;
26502;SDS011;14177;51.520;6.764;2024-03-25T06:55:56;21.17;;;5.22;;
26502;SDS011;14177;51.520;6.764;2024-03-25T06:58:25;18.40;;;5.00;;
26502;SDS011;14177;51.520;6.764;2024-03-25T07:00:53;23.67;;;5.57;;
26502;SDS011;14177;51.520;6.764;2024-03-25T07:03:21;23.30;;;4.85;;
26502;SDS011;14177;51.520;6.764;2024-03-25T07:05:49;14.63;;;5.15;;
26502;SDS011;14177;51.520;6.764;2024-03-25T07:08:20;14.18;;;4.78;;
26502;SDS011;14177;51.520;6.764;2024-03-25T07:10:47;13.70;;;4.38;;
26502;SDS011;14177;51.520;6.764;2024-03-25T07:13:13;15.88;;;5.47;;
26502;SDS011;14177;51.520;6.764;2024-03-25T07:15:40;18.40;;;5.35;;
26502;SDS011;14177;51.520;6.764;2024-03-25T07:18:08;12.20;;;4.13;;
26502;SDS011;14177;51.520;6.764;2024-03-25T07:20:36;18.63;;;5.15;;
26502;SDS011;14177;51.520;6.764;2024-03-25T07:23:03;14.40;;;5.03;;
26502;SDS011;14177;51.520;6.764;2024-03-25T07:25:29;19.58;;;5.18;;
26502;SDS011;14177;51.520;6.764;2024-03-25T07:27:55;21.35;;;5.63;;
26502;SDS011;14177;51.520;6.764;2024-03-25T07:30:22;23.05;;;5.55;;
26502;SDS011;14177;51.520;6.764;2024-03-25T07:32:51;20.25;;;5.35;;
26502;SDS011;14177;51.520;6.764;2024-03-25T07:35:17;20.85;;;5.40;;
26502;SDS011;14177;51.520;6.764;2024-03-25T07:37:43;24.98;;;4.95;;
26502;SDS011;14177;51.520;6.764;2024-03-25T07:40:09;19.52;;;5.13;;
26502;SDS011;14177;51.520;6.764;2024-03-25T07:42:37;16.48;;;4.80;;
26502;SDS011;14177;51.520;6.764;2024-03-25T07:45:04;14.43;;;4.97;;
26502;SDS011;14177;51.520;6.764;2024-03-25T07:47:31;13.27;;;4.65;;
26502;SDS011;14177;51.520;6.764;2024-03-25T07:49:58;20.25;;;4.95;;
26502;SDS011;14177;51.520;6.764;2024-03-25T07:52:28;15.43;;;4.32;;
26502;SDS011;14177;51.520;6.764;2024-03-25T07:54:54;21.38;;;4.82;;
26502;SDS011;14177;51.520;6.764;2024-03-25T07:57:21;17.80;;;4.95;;
26502;SDS011;14177;51.520;6.764;2024-03-25T07:59:47;21.70;;;4.47;;
26502;SDS011;14177;51.520;6.764;2024-03-25T08:02:14;13.15;;;4.32;;
26502;SDS011;14177;51.520;6.764;2024-03-25T08:04:40;15.52;;;4.88;;
26502;SDS011;14177;51.520;6.764;2024-03-25T08:07:07;20.58;;;4.15;;
26502;SDS011;14177;51.520;6.764;2024-03-25T08:09:33;16.25;;;3.80;;
26502;SDS011;14177;51.520;6.764;2024-03-25T08:11:59;12.65;;;3.92;;
26502;SDS011;14177;51.520;6.764;2024-03-25T08:14:25;14.65;;;4.65;;
26502;SDS011;14177;51.520;6.764;2024-03-25T08:16:51;14.68;;;3.45;;
26502;SDS011;14177;51.520;6.764;2024-03-25T08:19:17;18.80;;;5.43;;
26502;SDS011;14177;51.520;6.764;2024-03-25T08:21:43;14.02;;;4.10;;
26502;SDS011;14177;51.520;6.764;2024-03-25T08:24:09;16.65;;;4.15;;
26502;SDS011;14177;51.520;6.764;2024-03-25T08:26:35;14.57;;;4.45;;
26502;SDS011;14177;51.520;6.764;2024-03-25T08:29:01;23.85;;;4.45;;
26502;SDS011;14177;51.520;6.764;2024-03-25T08:31:29;10.18;;;4.00;;
26502;SDS011;14177;51.520;6.764;2024-03-25T08:33:55;12.40;;;3.33;;
26502;SDS011;14177;51.520;6.764;2024-03-25T08:36:21;15.45;;;3.08;;
26502;SDS011;14177;51.520;6.764;2024-03-25T08:38:47;16.95;;;3.83;;
26502;SDS011;14177;51.520;6.764;2024-03-25T08:41:13;11.80;;;3.53;;
26502;SDS011;14177;51.520;6.764;2024-03-25T08:43:40;11.85;;;2.92;;
26502;SDS011;14177;51.520;6.764;2024-03-25T08:46:06;9.55;;;2.80;;
26502;SDS011;14177;51.520;6.764;2024-03-25T08:48:32;6.07;;;1.30;;
26502;SDS011;14177;51.520;6.764;2024-03-25T08:50:59;9.95;;;2.00;;
26502;SDS011;14177;51.520;6.764;2024-03-25T08:53:25;8.02;;;1.90;;
26502;SDS011;14177;51.520;6.764;2024-03-25T08:55:50;16.15;;;2.42;;
26502;SDS011;14177;51.520;6.764;2024-03-25T08:58:16;10.70;;;2.33;;
26502;SDS011;14177;51.520;6.764;2024-03-25T09:00:43;10.85;;;2.05;;
26502;SDS011;14177;51.520;6.764;2024-03-25T09:03:09;11.00;;;2.13;;
26502;SDS011;14177;51.520;6.764;2024-03-25T09:05:36;7.78;;;2.45;;
26502;SDS011;14177;51.520;6.764;2024-03-25T09:08:04;10.98;;;2.33;;
26502;SDS011;14177;51.520;6.764;2024-03-25T09:10:32;15.18;;;2.58;;
26502;SDS011;14177;51.520;6.764;2024-03-25T09:13:16;17.90;;;2.65;;
26502;SDS011;14177;51.520;6.764;2024-03-25T09:15:42;12.45;;;2.42;;
26502;SDS011;14177;51.520;6.764;2024-03-25T09:18:08;10.85;;;2.17;;
26502;SDS011;14177;51.520;6.764;2024-03-25T09:20:35;13.40;;;2.20;;
26502;SDS011;14177;51.520;6.764;2024-03-25T09:23:01;10.35;;;2.10;;
26502;SDS011;14177;51.520;6.764;2024-03-25T09:25:27;6.78;;;1.98;;
26502;SDS011;14177;51.520;6.764;2024-03-25T09:27:53;14.70;;;2.42;;
26502;SDS011;14177;51.520;6.764;2024-03-25T09:30:19;8.20;;;2.28;;
26502;SDS011;14177;51.520;6.764;2024-03-25T09:32:45;12.13;;;2.30;;
26502;SDS011;14177;51.520;6.764;2024-03-25T09:35:11;11.70;;;2.10;;
26502;SDS011;14177;51.520;6.764;2024-03-25T09:37:38;18.88;;;2.65;;
26502;SDS011;14177;51.520;6.764;2024-03-25T09:40:04;8.55;;;1.95;;
26502;SDS011;14177;51.520;6.764;2024-03-25T09:42:36;7.15;;;2.03;;
26502;SDS011;14177;51.520;6.764;2024-03-25T09:45:21;8.73;;;2.03;;
26502;SDS011;14177;51.520;6.764;2024-03-25T09:47:53;12.15;;;2.40;;
26502;SDS011;14177;51.520;6.764;2024-03-25T09:50:21;6.95;;;1.70;;
26502;SDS011;14177;51.520;6.764;2024-03-25T09:52:50;7.60;;;1.92;;
26502;SDS011;14177;51.520;6.764;2024-03-25T09:55:17;9.85;;;2.47;;
26502;SDS011;14177;51.520;6.764;2024-03-25T09:57:43;5.30;;;1.75;;
26502;SDS011;14177;51.520;6.764;2024-03-25T10:00:10;12.40;;;2.13;;
26502;SDS011;14177;51.520;6.764;2024-03-25T10:02:38;7.07;;;2.13;;
26502;SDS011;14177;51.520;6.764;2024-03-25T10:05:06;7.70;;;1.95;;
26502;SDS011;14177;51.520;6.764;2024-03-25T10:07:33;8.88;;;2.60;;
26502;SDS011;14177;51.520;6.764;2024-03-25T10:10:03;6.80;;;2.20;;
26502;SDS011;14177;51.520;6.764;2024-03-25T10:12:30;8.43;;;2.33;;
26502;SDS011;14177;51.520;6.764;2024-03-25T10:14:57;4.95;;;1.63;;
26502;SDS011;14177;51.520;6.764;2024-03-25T10:17:24;11.40;;;2.28;;
26502;SDS011;14177;51.520;6.764;2024-03-25T10:19:50;13.38;;;2.22;;
26502;SDS011;14177;51.520;6.764;2024-03-25T10:22:19;11.18;;;2.10;;
26502;SDS011;14177;51.520;6.764;2024-03-25T10:24:46;13.68;;;2.30;;
26502;SDS011;14177;51.520;6.764;2024-03-25T10:27:17;9.07;;;1.73;;
26502;SDS011;14177;51.520;6.764;2024-03-25T10:29:47;12.73;;;2.30;;
26502;SDS011;14177;51.520;6.764;2024-03-25T10:32:18;6.88;;;1.70;;
26502;SDS011;14177;51.520;6.764;2024-03-25T10:34:45;7.97;;;1.58;;
26502;SDS011;14177;51.520;6.764;2024-03-25T10:37:11;5.30;;;1.63;;
26502;SDS011;14177;51.520;6.764;2024-03-25T10:39:46;6.15;;;1.83;;
26502;SDS011;14177;51.520;6.764;2024-03-25T10:42:19;6.15;;;2.10;;
26502;SDS011;14177;51.520;6.764;2024-03-25T10:44:47;8.50;;;2.17;;
26502;SDS011;14177;51.520;6.764;2024-03-25T10:47:19;9.25;;;2.10;;
26502;SDS011;14177;51.520;6.764;2024-03-25T10:49:50;4.45;;;1.23;;
26502;SDS011;14177;51.520;6.764;2024-03-25T10:52:24;7.30;;;1.37;;
26502;SDS011;14177;51.520;6.764;2024-03-25T10:54:54;8.70;;;1.77;;
26502;SDS011;14177;51.520;6.764;2024-03-25T10:57:21;7.45;;;1.90;;
26502;SDS011;14177;51.520;6.764;2024-03-25T10:59:49;4.10;;;1.65;;
26502;SDS011;14177;51.520;6.764;2024-03-25T11:02:15;8.20;;;1.65;;
26502;SDS011;14177;51.520;6.764;2024-03-25T11:04:43;9.23;;;1.73;;
26502;SDS011;14177;51.520;6.764;2024-03-25T11:07:11;6.18;;;1.50;;
26502;SDS011;14177;51.520;6.764;2024-03-25T11:09:41;8.88;;;1.38;;
26502;SDS011;14177;51.520;6.764;2024-03-25T11:12:12;8.85;;;2.42;;
26502;SDS011;14177;51.520;6.764;2024-03-25T11:14:40;10.07;;;2.40;;
26502;SDS011;14177;51.520;6.764;2024-03-25T11:17:16;7.88;;;2.78;;
26502;SDS011;14177;51.520;6.764;2024-03-25T11:19:42;14.90;;;3.30;;
26502;SDS011;14177;51.520;6.764;2024-03-25T11:22:11;10.10;;;2.38;;
26502;SDS011;14177;51.520;6.764;2024-03-25T11:24:37;9.02;;;2.60;;
26502;SDS011;14177;51.520;6.764;2024-03-25T11:27:09;11.65;;;2.70;;
26502;SDS011;14177;51.520;6.764;2024-03-25T11:29:35;7.43;;;2.17;;
26502;SDS011;14177;51.520;6.764;2024-03-25T11:32:04;12.02;;;2.42;;
26502;SDS011;14177;51.520;6.764;2024-03-25T11:34:31;5.18;;;1.60;;
26502;SDS011;14177;51.520;6.764;2024-03-25T11:36:57;8.45;;;1.90;;
26502;SDS011;14177;51.520;6.764;2024-03-25T11:39:24;5.28;;;1.40;;
26502;SDS011;14177;51.520;6.764;2024-03-25T11:41:54;7.28;;;1.98;;
26502;SDS011;14177;51.520;6.764;2024-03-25T11:44:20;5.63;;;1.60;;
26502;SDS011;14177;51.520;6.764;2024-03-25T11:46:51;9.48;;;1.75;;
26502;SDS011;14177;51.520;6.764;2024-03-25T11:49:20;7.78;;;2.05;;
26502;SDS011;14177;51.520;6.764;2024-03-25T11:51:47;3.47;;;1.70;;
26502;SDS011;14177;51.520;6.764;2024-03-25T11:54:13;7.25;;;2.28;;
26502;SDS011;14177;51.520;6.764;2024-03-25T11:56:39;7.22;;;2.60;;
26502;SDS011;14177;51.520;6.764;2024-03-25T11:59:13;10.45;;;3.22;;
26502;SDS011;14177;51.520;6.764;2024-03-25T12:01:44;10.10;;;3.38;;
26502;SDS011;14177;51.520;6.764;2024-03-25T12:04:17;9.00;;;2.92;;
26502;SDS011;14177;51.520;6.764;2024-03-25T12:07:14;9.90;;;3.13;;
26502;SDS011;14177;51.520;6.764;2024-03-25T12:09:41;6.88;;;3.00;;
26502;SDS011;14177;51.520;6.764;2024-03-25T12:12:27;8.55;;;3.25;;
26502;SDS011;14177;51.520;6.764;2024-03-25T12:14:53;9.52;;;3.03;;
26502;SDS011;14177;51.520;6.764;2024-03-25T12:17:21;9.82;;;3.03;;
26502;SDS011;14177;51.520;6.764;2024-03-25T12:20:04;8.70;;;3.30;;
26502;SDS011;14177;51.520;6.764;2024-03-25T12:22:36;10.95;;;2.92;;
26502;SDS011;14177;51.520;6.764;2024-03-25T12:25:03;6.90;;;2.88;;
26502;SDS011;14177;51.520;6.764;2024-03-25T12:27:34;10.63;;;2.75;;
26502;SDS011;14177;51.520;6.764;2024-03-25T12:30:09;10.95;;;3.35;;
26502;SDS011;14177;51.520;6.764;2024-03-25T12:35:10;11.50;;;3.90;;
26502;SDS011;14177;51.520;6.764;2024-03-25T12:37:38;16.20;;;4.18;;
26502;SDS011;14177;51.520;6.764;2024-03-25T12:40:06;11.10;;;3.85;;
26502;SDS011;14177;51.520;6.764;2024-03-25T12:42:36;9.48;;;3.53;;
26502;SDS011;14177;51.520;6.764;2024-03-25T12:45:04;10.10;;;3.65;;
26502;SDS011;14177;51.520;6.764;2024-03-25T12:47:31;11.32;;;3.95;;
26502;SDS011;14177;51.520;6.764;2024-03-25T12:49:58;8.00;;;3.58;;
26502;SDS011;14177;51.520;6.764;2024-03-25T12:52:25;11.00;;;3.83;;
26502;SDS011;14177;51.520;6.764;2024-03-25T12:54:51;5.88;;;3.00;;
26502;SDS011;14177;51.520;6.764;2024-03-25T12:57:17;9.20;;;3.10;;
26502;SDS011;14177;51.520;6.764;2024-03-25T12:59:44;8.00;;;4.10;;
26502;SDS011;14177;51.520;6.764;2024-03-25T13:02:11;8.65;;;3.58;;
26502;SDS011;14177;51.520;6.764;2024-03-25T13:04:38;8.93;;;3.10;;
26502;SDS011;14177;51.520;6.764;2024-03-25T13:07:06;7.45;;;2.03;;
26502;SDS011;14177;51.520;6.764;2024-03-25T13:09:32;7.85;;;2.42;;
26502;SDS011;14177;51.520;6.764;2024-03-25T13:11:58;7.10;;;2.55;;
26502;SDS011;14177;51.520;6.764;2024-03-25T13:14:25;7.03;;;2.20;;
26502;SDS011;14177;51.520;6.764;2024-03-25T13:16:51;8.35;;;2.58;;
26502;SDS011;14177;51.520;6.764;2024-03-25T13:19:17;6.47;;;2.50;;
26502;SDS011;14177;51.520;6.764;2024-03-25T13:21:43;6.57;;;2.20;;
26502;SDS011;14177;51.520;6.764;2024-03-25T13:24:10;3.85;;;1.77;;
26502;SDS011;14177;51.520;6.764;2024-03-25T13:26:36;8.40;;;2.10;;
26502;SDS011;14177;51.520;6.764;2024-03-25T13:29:02;5.13;;;1.63;;
26502;SDS011;14177;51.520;6.764;2024-03-25T13:31:28;7.68;;;1.88;;
26502;SDS011;14177;51.520;6.764;2024-03-25T13:33:54;4.22;;;1.75;;
26502;SDS011;14177;51.520;6.764;2024-03-25T13:36:20;4.25;;;1.90;;
26502;SDS011;14177;51.520;6.764;2024-03-25T13:38:46;4.93;;;1.70;;
26502;SDS011;14177;51.520;6.764;2024-03-25T13:41:12;7.70;;;1.60;;
26502;SDS011;14177;51.520;6.764;2024-03-25T13:43:42;5.82;;;1.65;;
26502;SDS011;14177;51.520;6.764;2024-03-25T13:46:08;4.88;;;1.30;;
26502;SDS011;14177;51.520;6.764;2024-03-25T13:48:37;3.67;;;1.15;;
26502;SDS011;14177;51.520;6.764;2024-03-25T13:51:03;6.10;;;1.65;;
26502;SDS011;14177;51.520;6.764;2024-03-25T13:53:30;6.80;;;1.52;;
26502;SDS011;14177;51.520;6.764;2024-03-25T13:55:56;5.20;;;1.63;;
26502;SDS011;14177;51.520;6.764;2024-03-25T13:58:22;5.38;;;1.63;;
26502;SDS011;14177;51.520;6.764;2024-03-25T14:00:48;7.32;;;1.70;;
26502;SDS011;14177;51.520;6.764;2024-03-25T14:03:15;7.22;;;1.90;;
26502;SDS011;14177;51.520;6.764;2024-03-25T14:05:41;8.48;;;1.50;;
26502;SDS011;14177;51.520;6.764;2024-03-25T14:08:07;6.53;;;1.85;;
26502;SDS011;14177;51.520;6.764;2024-03-25T14:10:34;5.60;;;1.80;;
26502;SDS011;14177;51.520;6.764;2024-03-25T14:13:00;7.78;;;1.95;;
26502;SDS011;14177;51.520;6.764;2024-03-25T14:15:27;5.97;;;1.50;;
26502;SDS011;14177;51.520;6.764;2024-03-25T14:17:53;8.35;;;2.13;;
26502;SDS011;14177;51.520;6.764;2024-03-25T14:20:19;4.38;;;1.20;;
26502;SDS011;14177;51.520;6.764;2024-03-25T14:22:45;7.28;;;1.60;;
26502;SDS011;14177;51.520;6.764;2024-03-25T14:25:11;12.07;;;2.00;;
26502;SDS011;14177;51.520;6.764;2024-03-25T14:27:37;5.97;;;1.50;;
26502;SDS011;14177;51.520;6.764;2024-03-25T14:30:03;7.10;;;1.63;;
26502;SDS011;14177;51.520;6.764;2024-03-25T14:32:30;6.72;;;1.55;;
26502;SDS011;14177;51.520;6.764;2024-03-25T14:34:56;5.90;;;1.95;;
26502;SDS011;14177;51.520;6.764;2024-03-25T14:37:22;10.90;;;1.67;;
26502;SDS011;14177;51.520;6.764;2024-03-25T14:39:48;7.18;;;1.92;;
26502;SDS011;14177;51.520;6.764;2024-03-25T14:42:14;7.53;;;1.80;;